createdAt,value
2022-11-08T00:03:08.683Z,100967.00
2022-11-08T00:08:10.769Z,100970.63
2022-11-08T00:13:12.773Z,100983.09
2022-11-08T00:18:16.513Z,100985.88
2022-11-08T00:23:18.872Z,100984.25
2022-11-08T00:28:20.936Z,100978.16
2022-11-08T00:33:24.604Z,100986.16
2022-11-08T00:38:26.773Z,100991.53
2022-11-08T00:43:28.750Z,101008.34
2022-11-08T00:48:32.222Z,101008.34
2022-11-08T00:53:36.725Z,100995.09
2022-11-08T00:58:38.677Z,101002.16
2022-11-08T01:03:42.529Z,101000.41
2022-11-08T01:08:45.379Z,100993.38
2022-11-08T01:13:47.913Z,100998.66
2022-11-08T01:18:55.043Z,100995.09
2022-11-08T01:23:57.111Z,100989.75
2022-11-08T01:28:59.894Z,100982.63
2022-11-08T01:34:03.956Z,100979.94
2022-11-08T01:39:06.114Z,100982.63
2022-11-08T01:44:16.060Z,100990.63
2022-11-08T01:49:29.387Z,100973.88
2022-11-08T01:54:36.420Z,100978.28
2022-11-08T01:59:41.049Z,100979.19
2022-11-08T02:04:44.870Z,100976.56
2022-11-08T02:09:47.932Z,100968.66
2022-11-08T02:14:49.929Z,100976.59
2022-11-08T02:19:53.383Z,100975.72
2022-11-08T02:24:57.097Z,100967.78
2022-11-08T02:29:59.121Z,100974.00
2022-11-08T02:35:02.005Z,100968.72
2022-11-08T02:40:07.001Z,100976.63
2022-11-08T02:45:09.763Z,100977.50
2022-11-08T02:50:11.911Z,100969.56
2022-11-08T02:55:14.987Z,100964.28
2022-11-08T03:00:17.372Z,100979.31
2022-11-08T03:05:19.820Z,100969.59
2022-11-08T03:10:24.257Z,100967.78
2022-11-08T03:15:26.638Z,100964.25
2022-11-08T03:20:32.895Z,100961.56
2022-11-08T03:25:36.785Z,100969.56
2022-11-08T03:30:39.043Z,100969.63
2022-11-08T03:35:41.349Z,100967.00
2022-11-08T03:40:46.765Z,100959.03
2022-11-08T03:45:48.876Z,100954.66
2022-11-08T03:50:51.215Z,100956.41
2022-11-08T03:55:54.708Z,100956.38
2022-11-08T04:00:56.784Z,100955.47
2022-11-08T04:06:00.111Z,100948.38
2022-11-08T04:11:04.062Z,100965.94
2022-11-08T04:16:06.536Z,100972.91
2022-11-08T04:21:15.173Z,100970.22
2022-11-08T04:26:19.883Z,100967.63
2022-11-08T04:31:21.939Z,100964.25
2022-11-08T04:36:24.199Z,100947.53
2022-11-08T04:41:28.234Z,100952.84
2022-11-08T04:46:30.394Z,100967.84
2022-11-08T04:51:33.853Z,100969.59
2022-11-08T04:56:37.350Z,100966.06
2022-11-08T05:01:39.396Z,100966.03
2022-11-08T05:06:41.768Z,100963.31
2022-11-08T05:11:45.235Z,100960.69
2022-11-08T05:16:47.372Z,100967.72
2022-11-08T05:21:49.466Z,100955.41
2022-11-08T05:26:52.875Z,100960.63
2022-11-08T05:31:55.003Z,100949.19
2022-11-08T05:36:56.925Z,100948.34
2022-11-08T05:42:00.281Z,100951.88
2022-11-08T05:47:02.619Z,100951.00
2022-11-08T05:52:05.342Z,100955.41
2022-11-08T05:57:08.677Z,100962.44
2022-11-08T06:02:12.718Z,100957.16
2022-11-08T06:07:14.694Z,100958.03
2022-11-08T06:12:18.346Z,100954.53
2022-11-08T06:17:20.442Z,100970.41
2022-11-08T06:22:22.074Z,100966.00
2022-11-08T06:27:26.002Z,100959.78
2022-11-08T06:32:27.996Z,100966.88
2022-11-08T06:37:30.631Z,100969.53
2022-11-08T06:42:33.982Z,100971.25
2022-11-08T06:47:36.840Z,100979.19
2022-11-08T06:52:38.851Z,100983.59
2022-11-08T06:57:42.195Z,100980.97
2022-11-08T07:02:43.973Z,100980.06
2022-11-08T07:07:46.035Z,100992.41
2022-11-08T07:12:57.988Z,100985.38
2022-11-08T07:18:01.101Z,100973.09
2022-11-08T07:23:03.384Z,100972.22
2022-11-08T07:28:13.126Z,100975.75
2022-11-08T07:33:16.532Z,100980.19
2022-11-08T07:38:20.059Z,100981.94
2022-11-08T07:43:23.944Z,100981.09
2022-11-08T07:48:27.951Z,100978.47
2022-11-08T07:53:30.319Z,100977.56
2022-11-08T07:58:33.966Z,100974.91
2022-11-08T08:03:35.937Z,100972.22
2022-11-08T08:08:37.938Z,100969.53
2022-11-08T08:13:41.267Z,100964.13
2022-11-08T08:18:43.443Z,100955.22
2022-11-08T08:23:45.060Z,100938.34
2022-11-08T08:28:48.516Z,100950.53
2022-11-08T08:33:50.604Z,100937.97
2022-11-08T08:38:52.920Z,100945.66
2022-11-08T08:43:56.626Z,100937.41
2022-11-08T08:48:58.664Z,100937.97
2022-11-08T08:54:00.711Z,100929.78
2022-11-08T09:04:26.610Z,100925.91
2022-11-08T09:09:28.595Z,100933.28
2022-11-08T09:14:31.995Z,100937.47
2022-11-08T09:19:34.419Z,100934.00
2022-11-08T09:24:36.563Z,100932.69
2022-11-08T09:29:42.855Z,100932.06
2022-11-08T09:34:45.453Z,100932.47
2022-11-08T09:39:47.709Z,100927.84
2022-11-08T09:45:09.991Z,100922.22
2022-11-08T09:50:17.306Z,100921.88
2022-11-08T09:55:26.945Z,100913.03
2022-11-08T10:00:31.465Z,100908.25
2022-11-08T10:05:41.698Z,100910.09
2022-11-08T10:11:02.584Z,100914.78
2022-11-08T10:16:15.255Z,100896.34
2022-11-08T10:21:31.997Z,100899.44
2022-11-08T10:26:37.479Z,100887.78
2022-11-08T10:31:43.435Z,100886.69
2022-11-08T10:36:47.677Z,100888.44
2022-11-08T10:41:57.621Z,100880.28
2022-11-08T10:47:03.484Z,100885.72
2022-11-08T10:52:18.186Z,100884.22
2022-11-08T10:57:25.296Z,100880.59
2022-11-08T11:02:34.323Z,100865.44
2022-11-08T11:07:36.624Z,100871.09
2022-11-08T11:12:38.867Z,100860.81
2022-11-08T11:17:44.976Z,100856.72
2022-11-08T11:22:47.444Z,100862.31
2022-11-08T11:27:54.015Z,100849.69
2022-11-08T11:33:00.224Z,100835.44
2022-11-08T11:38:08.225Z,100832.38
2022-11-08T11:43:17.940Z,100837.31
2022-11-08T11:48:27.279Z,100831.50
2022-11-08T11:53:32.002Z,100819.34
2022-11-08T11:58:58.781Z,100812.59
2022-11-08T12:04:21.999Z,100811.75
2022-11-08T12:09:48.733Z,100795.75
2022-11-08T12:15:00.507Z,100794.28
2022-11-08T12:20:14.252Z,100782.63
2022-11-08T12:25:23.321Z,100782.13
2022-11-08T12:30:32.969Z,100780.66
2022-11-08T12:35:44.670Z,100777.16
2022-11-08T12:40:54.950Z,100775.03
2022-11-08T12:46:06.849Z,100763.88
2022-11-08T12:51:19.846Z,100764.69
2022-11-08T12:56:25.597Z,100753.53
2022-11-08T13:01:27.884Z,100738.09
2022-11-08T13:06:39.108Z,100733.31
2022-11-08T13:11:47.331Z,100720.81
2022-11-08T13:17:15.974Z,100707.94
2022-11-08T13:22:57.012Z,100709.91
2022-11-08T13:27:59.147Z,100708.72
2022-11-08T13:33:12.476Z,100707.97
2022-11-08T13:38:27.101Z,100721.69
2022-11-08T13:43:31.257Z,100723.50
2022-11-08T13:48:41.194Z,100718.75
2022-11-08T13:53:47.249Z,100732.13
2022-11-08T13:58:49.460Z,100723.41
2022-11-08T14:03:56.329Z,100713.16
2022-11-08T14:09:07.249Z,100707.59
2022-11-08T14:14:40.571Z,100701.75
2022-11-08T14:19:45.993Z,100698.56
2022-11-08T14:24:52.903Z,100688.94
2022-11-08T14:29:59.535Z,100683.59
2022-11-08T14:35:12.811Z,100686.28
2022-11-08T14:40:20.432Z,100696.69
2022-11-08T14:45:26.847Z,100676.91
2022-11-08T14:50:32.248Z,100683.13
2022-11-08T14:55:37.850Z,100669.53
2022-11-08T15:00:43.647Z,100672.97
2022-11-08T15:05:54.811Z,100667.25
2022-11-08T15:11:01.241Z,100656.94
2022-11-08T15:16:05.217Z,100659.63
2022-11-08T15:21:21.127Z,100664.38
2022-11-08T15:26:27.649Z,100644.13
2022-11-08T15:31:34.318Z,100650.84
2022-11-08T15:36:37.624Z,100653.91
2022-11-08T15:41:41.147Z,100651.59
2022-11-08T15:46:44.295Z,100640.34
2022-11-08T15:51:47.284Z,100629.94
2022-11-08T15:56:52.826Z,100640.63
2022-11-08T16:01:58.551Z,100634.41
2022-11-08T16:07:00.756Z,100637.16
2022-11-08T16:12:05.101Z,100628.34
2022-11-08T16:17:14.135Z,100640.59
2022-11-08T16:22:19.192Z,100634.63
2022-11-08T16:27:23.051Z,100637.25
2022-11-08T16:32:25.227Z,100633.81
2022-11-08T16:37:27.263Z,100622.94
2022-11-08T16:42:30.893Z,100616.13
2022-11-08T16:47:33.386Z,100627.84
2022-11-08T16:52:38.195Z,100623.78
2022-11-08T16:57:41.462Z,100619.94
2022-11-08T17:02:46.394Z,100623.00
2022-11-08T17:07:49.128Z,100630.94
2022-11-08T17:12:53.037Z,100630.09
2022-11-08T17:17:56.640Z,100619.63
2022-11-08T17:22:58.927Z,100631.06
2022-11-08T17:28:02.668Z,100616.31
2022-11-08T17:33:04.819Z,100636.00
2022-11-08T17:38:07.132Z,100632.78
2022-11-08T17:43:10.568Z,100622.63
2022-11-08T17:48:12.190Z,100623.72
2022-11-08T17:53:14.396Z,100625.56
2022-11-08T17:58:17.753Z,100633.38
2022-11-08T18:03:20.795Z,100642.34
2022-11-08T18:08:26.869Z,100639.94
2022-11-08T18:13:32.225Z,100652.94
2022-11-08T18:18:34.506Z,100635.38
2022-11-08T18:23:36.731Z,100632.84
2022-11-08T18:28:40.925Z,100633.50
2022-11-08T18:33:43.788Z,100630.59
2022-11-08T18:38:46.432Z,100619.56
2022-11-08T18:43:50.152Z,100637.47
2022-11-08T18:48:52.651Z,100613.28
2022-11-08T18:53:54.541Z,100612.88
2022-11-08T18:58:57.977Z,100603.66
2022-11-08T19:03:59.609Z,100620.00
2022-11-08T19:09:01.579Z,100627.41
2022-11-08T19:14:04.701Z,100616.53
2022-11-08T19:19:06.629Z,100620.94
2022-11-08T19:24:08.466Z,100628.59
2022-11-08T19:29:12.259Z,100627.91
2022-11-08T19:34:14.390Z,100637.03
2022-11-08T19:39:16.049Z,100631.72
2022-11-08T19:44:19.748Z,100627.06
2022-11-08T19:49:22.071Z,100628.88
2022-11-08T19:54:24.223Z,100632.59
2022-11-08T19:59:27.486Z,100620.16
2022-11-08T20:04:29.855Z,100629.22
2022-11-08T20:09:32.025Z,100626.13
2022-11-08T20:14:35.968Z,100625.22
2022-11-08T20:19:37.712Z,100625.69
2022-11-08T20:24:39.575Z,100623.47
2022-11-08T20:29:43.026Z,100623.56
2022-11-08T20:34:46.109Z,100621.84
2022-11-08T20:39:48.456Z,100626.44
2022-11-08T20:44:51.794Z,100630.97
2022-11-08T20:49:56.233Z,100633.13
2022-11-08T20:54:58.029Z,100633.41
2022-11-08T21:00:12.356Z,100633.31
2022-11-08T21:05:15.453Z,100637.75
2022-11-08T21:10:41.558Z,100633.28
2022-11-08T21:15:43.626Z,100629.00
2022-11-08T21:20:45.664Z,100620.47
2022-11-08T21:25:51.056Z,100613.31
2022-11-08T21:30:54.797Z,100616.97
2022-11-08T21:35:57.682Z,100611.78
2022-11-08T21:41:05.586Z,100616.13
2022-11-08T21:46:21.462Z,100612.63
2022-11-08T21:51:23.559Z,100614.50
2022-11-08T21:56:28.761Z,100607.50
2022-11-08T22:01:32.246Z,100613.00
2022-11-08T22:06:36.037Z,100610.28
2022-11-08T22:11:38.234Z,100608.31
2022-11-08T22:16:41.616Z,100620.84
2022-11-08T22:21:43.619Z,100623.47
2022-11-08T22:26:46.355Z,100614.59
2022-11-08T22:31:49.730Z,100610.16
2022-11-08T22:36:51.720Z,100617.34
2022-11-08T22:41:54.443Z,100621.78
2022-11-08T22:46:57.453Z,100603.97
2022-11-08T22:51:59.614Z,100597.03
2022-11-08T22:57:01.498Z,100605.94
2022-11-08T23:02:04.913Z,100605.06
2022-11-08T23:07:06.945Z,100613.06
2022-11-08T23:12:09.738Z,100599.88
2022-11-08T23:17:12.774Z,100608.72
2022-11-08T23:22:16.373Z,100625.72
2022-11-08T23:27:19.440Z,100625.75
2022-11-08T23:32:22.915Z,100620.34
2022-11-08T23:37:25.028Z,100620.31
2022-11-08T23:42:26.671Z,100628.44
2022-11-08T23:47:30.027Z,100630.25
2022-11-08T23:52:32.976Z,100639.16
2022-11-08T23:57:35.226Z,100654.22
